sensor_id;sensor_type;location;lat;lon;timestamp;pressure;altitude;pressure_sealevel;temperature;humidity
46291;BME280;32023;44.444;26.006;2022-07-05T00:01:50;100304.66;;;33.04;27.60
46291;BME280;32023;44.444;26.006;2022-07-05T00:04:25;100296.13;;;32.86;28.30
46291;BME280;32023;44.444;26.006;2022-07-05T00:06:52;100289.63;;;32.79;28.25
46291;BME280;32023;44.444;26.006;2022-07-05T00:09:39;100299.44;;;32.71;28.42
46291;BME280;32023;44.444;26.006;2022-07-05T00:12:29;100296.22;;;32.62;28.14
46291;BME280;32023;44.444;26.006;2022-07-05T00:14:58;100291.31;;;32.66;28.55
46291;BME280;32023;44.444;26.006;2022-07-05T00:17:25;100288.88;;;32.54;28.54
46291;BME280;32023;44.444;26.006;2022-07-05T00:19:52;100293.34;;;32.55;28.44
46291;BME280;32023;44.444;26.006;2022-07-05T00:22:21;100288.88;;;32.43;28.78
46291;BME280;32023;44.444;26.006;2022-07-05T00:24:50;100289.72;;;32.36;28.18
46291;BME280;32023;44.444;26.006;2022-07-05T00:27:21;100275.03;;;32.45;28.84
46291;BME280;32023;44.444;26.006;2022-07-05T00:29:48;100286.03;;;32.46;28.66
46291;BME280;32023;44.444;26.006;2022-07-05T00:32:14;100266.50;;;32.34;28.67
46291;BME280;32023;44.444;26.006;2022-07-05T00:34:42;100267.31;;;32.28;28.66
46291;BME280;32023;44.444;26.006;2022-07-05T00:37:12;100265.28;;;32.28;28.95
46291;BME280;32023;44.444;26.006;2022-07-05T00:39:39;100261.19;;;32.01;28.92
46291;BME280;32023;44.444;26.006;2022-07-05T00:42:11;100259.16;;;31.80;29.37
46291;BME280;32023;44.444;26.006;2022-07-05T00:44:38;100261.22;;;31.76;29.57
46291;BME280;32023;44.444;26.006;2022-07-05T00:47:10;100267.31;;;31.82;29.37
46291;BME280;32023;44.444;26.006;2022-07-05T00:49:40;100261.22;;;31.97;29.20
46291;BME280;32023;44.444;26.006;2022-07-05T00:55:43;100255.72;;;29.88;32.24
46291;BME280;32023;44.444;26.006;2022-07-05T00:58:29;100253.31;;;28.83;34.15
46291;BME280;32023;44.444;26.006;2022-07-05T01:01:05;100250.69;;;28.14;35.11
46291;BME280;32023;44.444;26.006;2022-07-05T01:03:35;100250.22;;;27.63;36.20
46291;BME280;32023;44.444;26.006;2022-07-05T01:06:09;100253.09;;;27.25;37.28
46291;BME280;32023;44.444;26.006;2022-07-05T01:08:38;100244.59;;;26.83;38.34
46291;BME280;32023;44.444;26.006;2022-07-05T01:11:18;100252.50;;;26.58;38.86
46291;BME280;32023;44.444;26.006;2022-07-05T01:13:44;100248.94;;;26.26;39.68
46291;BME280;32023;44.444;26.006;2022-07-05T01:16:18;100247.59;;;26.05;40.13
46291;BME280;32023;44.444;26.006;2022-07-05T01:18:45;100246.97;;;25.96;40.22
46291;BME280;32023;44.444;26.006;2022-07-05T01:21:13;100244.50;;;25.94;40.29
46291;BME280;32023;44.444;26.006;2022-07-05T01:23:42;100242.69;;;25.86;40.53
46291;BME280;32023;44.444;26.006;2022-07-05T01:26:18;100246.59;;;25.81;40.57
46291;BME280;32023;44.444;26.006;2022-07-05T01:28:44;100243.06;;;25.69;40.73
46291;BME280;32023;44.444;26.006;2022-07-05T01:31:25;100238.53;;;25.64;41.08
46291;BME280;32023;44.444;26.006;2022-07-05T01:33:52;100245.59;;;25.58;40.99
46291;BME280;32023;44.444;26.006;2022-07-05T01:36:18;100249.88;;;25.52;41.29
46291;BME280;32023;44.444;26.006;2022-07-05T01:38:50;100257.84;;;25.50;41.86
46291;BME280;32023;44.444;26.006;2022-07-05T01:41:16;100256.94;;;25.46;42.58
46291;BME280;32023;44.444;26.006;2022-07-05T01:43:45;100262.47;;;25.42;43.19
46291;BME280;32023;44.444;26.006;2022-07-05T01:46:13;100266.84;;;25.40;43.52
46291;BME280;32023;44.444;26.006;2022-07-05T01:48:41;100266.28;;;25.34;43.88
46291;BME280;32023;44.444;26.006;2022-07-05T01:51:15;100270.22;;;25.30;44.29
46291;BME280;32023;44.444;26.006;2022-07-05T01:53:45;100266.72;;;25.21;45.03
46291;BME280;32023;44.444;26.006;2022-07-05T01:56:12;100275.69;;;25.11;45.74
46291;BME280;32023;44.444;26.006;2022-07-05T01:58:39;100277.50;;;25.03;46.58
46291;BME280;32023;44.444;26.006;2022-07-05T02:01:05;100275.66;;;24.95;47.50
46291;BME280;32023;44.444;26.006;2022-07-05T02:03:32;100272.97;;;24.86;48.45
46291;BME280;32023;44.444;26.006;2022-07-05T02:05:58;100275.53;;;24.79;48.81
46291;BME280;32023;44.444;26.006;2022-07-05T02:08:30;100280.97;;;24.72;49.34
46291;BME280;32023;44.444;26.006;2022-07-05T02:10:57;100277.84;;;24.62;49.51
46291;BME280;32023;44.444;26.006;2022-07-05T02:13:23;100277.50;;;24.51;50.04
46291;BME280;32023;44.444;26.006;2022-07-05T02:15:50;100273.63;;;24.43;50.38
46291;BME280;32023;44.444;26.006;2022-07-05T02:18:16;100270.25;;;24.38;51.26
46291;BME280;32023;44.444;26.006;2022-07-05T02:20:43;100263.69;;;24.34;52.25
46291;BME280;32023;44.444;26.006;2022-07-05T02:23:12;100274.72;;;24.27;53.53
46291;BME280;32023;44.444;26.006;2022-07-05T02:25:42;100277.78;;;24.22;55.14
46291;BME280;32023;44.444;26.006;2022-07-05T02:28:08;100275.91;;;24.14;56.29
46291;BME280;32023;44.444;26.006;2022-07-05T02:30:35;100278.44;;;24.07;56.86
46291;BME280;32023;44.444;26.006;2022-07-05T02:33:06;100277.50;;;24.03;58.19
46291;BME280;32023;44.444;26.006;2022-07-05T02:35:36;100286.22;;;23.97;58.97
46291;BME280;32023;44.444;26.006;2022-07-05T02:38:03;100287.25;;;23.93;59.83
46291;BME280;32023;44.444;26.006;2022-07-05T02:40:30;100286.75;;;23.91;60.59
46291;BME280;32023;44.444;26.006;2022-07-05T02:42:56;100288.63;;;23.87;61.48
46291;BME280;32023;44.444;26.006;2022-07-05T02:45:23;100288.53;;;23.83;62.24
46291;BME280;32023;44.444;26.006;2022-07-05T02:47:58;100287.25;;;23.81;62.79
46291;BME280;32023;44.444;26.006;2022-07-05T02:50:24;100286.28;;;23.77;63.13
46291;BME280;32023;44.444;26.006;2022-07-05T02:52:58;100282.19;;;23.74;63.30
46291;BME280;32023;44.444;26.006;2022-07-05T02:55:34;100289.31;;;23.72;63.64
46291;BME280;32023;44.444;26.006;2022-07-05T02:58:00;100288.53;;;23.71;63.88
46291;BME280;32023;44.444;26.006;2022-07-05T03:00:26;100290.16;;;23.72;64.42
46291;BME280;32023;44.444;26.006;2022-07-05T03:03:02;100294.16;;;23.71;64.56
46291;BME280;32023;44.444;26.006;2022-07-05T03:05:33;100294.81;;;23.68;65.16
46291;BME280;32023;44.444;26.006;2022-07-05T03:08:05;100288.41;;;23.68;65.52
46291;BME280;32023;44.444;26.006;2022-07-05T03:10:34;100292.72;;;23.65;65.97
46291;BME280;32023;44.444;26.006;2022-07-05T03:13:02;100299.53;;;23.64;66.19
46291;BME280;32023;44.444;26.006;2022-07-05T03:15:28;100285.09;;;23.66;66.43
46291;BME280;32023;44.444;26.006;2022-07-05T03:17:55;100290.03;;;23.69;66.49
46291;BME280;32023;44.444;26.006;2022-07-05T03:20:21;100286.88;;;23.70;66.63
46291;BME280;32023;44.444;26.006;2022-07-05T03:22:58;100291.34;;;23.71;66.50
46291;BME280;32023;44.444;26.006;2022-07-05T03:25:27;100288.16;;;23.73;66.59
46291;BME280;32023;44.444;26.006;2022-07-05T03:27:54;100286.66;;;23.75;66.88
46291;BME280;32023;44.444;26.006;2022-07-05T03:30:20;100279.13;;;23.79;66.80
46291;BME280;32023;44.444;26.006;2022-07-05T03:32:49;100284.91;;;23.83;66.55
46291;BME280;32023;44.444;26.006;2022-07-05T03:35:15;100288.31;;;23.88;66.36
46291;BME280;32023;44.444;26.006;2022-07-05T03:37:49;100292.50;;;23.94;66.00
46291;BME280;32023;44.444;26.006;2022-07-05T03:40:22;100289.13;;;24.01;65.69
46291;BME280;32023;44.444;26.006;2022-07-05T03:42:48;100279.28;;;24.07;65.48
46291;BME280;32023;44.444;26.006;2022-07-05T03:45:17;100276.38;;;24.16;65.13
46291;BME280;32023;44.444;26.006;2022-07-05T03:47:44;100283.88;;;24.24;64.96
46291;BME280;32023;44.444;26.006;2022-07-05T03:50:10;100286.56;;;24.32;65.04
46291;BME280;32023;44.444;26.006;2022-07-05T03:52:44;100286.91;;;24.43;64.95
46291;BME280;32023;44.444;26.006;2022-07-05T03:55:13;100288.88;;;24.55;64.68
46291;BME280;32023;44.444;26.006;2022-07-05T03:57:42;100289.66;;;24.67;64.55
46291;BME280;32023;44.444;26.006;2022-07-05T04:00:15;100285.53;;;24.77;63.44
46291;BME280;32023;44.444;26.006;2022-07-05T04:02:44;100292.44;;;24.91;62.23
46291;BME280;32023;44.444;26.006;2022-07-05T04:05:10;100290.75;;;25.03;61.51
46291;BME280;32023;44.444;26.006;2022-07-05T04:07:51;100297.53;;;25.14;60.96
46291;BME280;32023;44.444;26.006;2022-07-05T04:10:19;100302.53;;;25.20;60.78
46291;BME280;32023;44.444;26.006;2022-07-05T04:12:45;100298.28;;;25.26;60.27
46291;BME280;32023;44.444;26.006;2022-07-05T04:15:12;100295.19;;;25.31;59.90
46291;BME280;32023;44.444;26.006;2022-07-05T04:17:51;100296.94;;;25.36;59.73
46291;BME280;32023;44.444;26.006;2022-07-05T04:20:21;100299.50;;;25.41;59.77
46291;BME280;32023;44.444;26.006;2022-07-05T04:22:48;100297.13;;;25.43;59.24
46291;BME280;32023;44.444;26.006;2022-07-05T04:25:16;100296.31;;;25.42;58.30
46291;BME280;32023;44.444;26.006;2022-07-05T04:27:45;100298.41;;;25.46;57.50
46291;BME280;32023;44.444;26.006;2022-07-05T04:30:12;100302.03;;;25.46;58.00
46291;BME280;32023;44.444;26.006;2022-07-05T04:32:39;100293.97;;;25.45;57.23
46291;BME280;32023;44.444;26.006;2022-07-05T04:35:06;100300.97;;;25.51;56.94
46291;BME280;32023;44.444;26.006;2022-07-05T04:37:45;100302.41;;;25.57;56.69
46291;BME280;32023;44.444;26.006;2022-07-05T04:40:15;100306.47;;;25.59;56.83
46291;BME280;32023;44.444;26.006;2022-07-05T04:42:50;100301.03;;;25.66;57.08
46291;BME280;32023;44.444;26.006;2022-07-05T04:45:19;100300.03;;;25.74;57.98
46291;BME280;32023;44.444;26.006;2022-07-05T04:47:46;100302.31;;;25.84;57.90
46291;BME280;32023;44.444;26.006;2022-07-05T04:50:14;100297.22;;;25.90;57.78
46291;BME280;32023;44.444;26.006;2022-07-05T04:53:07;100301.75;;;25.95;57.74
46291;BME280;32023;44.444;26.006;2022-07-05T04:55:39;100291.94;;;26.04;57.82
46291;BME280;32023;44.444;26.006;2022-07-05T04:58:10;100306.22;;;26.11;57.75
46291;BME280;32023;44.444;26.006;2022-07-05T05:00:37;100301.59;;;26.19;57.72
46291;BME280;32023;44.444;26.006;2022-07-05T05:03:04;100305.75;;;26.25;57.68
46291;BME280;32023;44.444;26.006;2022-07-05T05:05:31;100309.06;;;26.27;57.63
46291;BME280;32023;44.444;26.006;2022-07-05T05:08:00;100308.41;;;26.33;57.26
46291;BME280;32023;44.444;26.006;2022-07-05T05:10:29;100294.84;;;26.39;56.53
46291;BME280;32023;44.444;26.006;2022-07-05T05:12:55;100300.66;;;26.46;55.38
46291;BME280;32023;44.444;26.006;2022-07-05T05:15:22;100303.97;;;26.52;52.79
46291;BME280;32023;44.444;26.006;2022-07-05T05:17:48;100311.81;;;26.58;50.98
46291;BME280;32023;44.444;26.006;2022-07-05T05:20:16;100315.16;;;26.64;49.76
46291;BME280;32023;44.444;26.006;2022-07-05T05:22:43;100304.84;;;26.71;49.15
46291;BME280;32023;44.444;26.006;2022-07-05T05:25:10;100307.91;;;26.82;48.98
46291;BME280;32023;44.444;26.006;2022-07-05T05:27:41;100312.94;;;26.89;48.36
46291;BME280;32023;44.444;26.006;2022-07-05T05:30:08;100321.03;;;26.90;48.06
46291;BME280;32023;44.444;26.006;2022-07-05T05:32:35;100322.75;;;26.95;47.82
46291;BME280;32023;44.444;26.006;2022-07-05T05:35:09;100318.75;;;26.96;46.09
46291;BME280;32023;44.444;26.006;2022-07-05T05:40:12;100319.66;;;27.00;44.92
46291;BME280;32023;44.444;26.006;2022-07-05T05:42:39;100327.53;;;27.10;44.98
46291;BME280;32023;44.444;26.006;2022-07-05T05:45:06;100328.22;;;27.22;44.45
46291;BME280;32023;44.444;26.006;2022-07-05T05:47:32;100340.97;;;27.36;43.65
46291;BME280;32023;44.444;26.006;2022-07-05T05:50:02;100329.19;;;27.49;43.06
46291;BME280;32023;44.444;26.006;2022-07-05T05:52:28;100339.06;;;27.59;42.36
46291;BME280;32023;44.444;26.006;2022-07-05T05:54:55;100337.19;;;27.66;42.09
46291;BME280;32023;44.444;26.006;2022-07-05T05:57:21;100332.84;;;27.72;41.33
46291;BME280;32023;44.444;26.006;2022-07-05T05:59:51;100338.19;;;27.77;40.93
46291;BME280;32023;44.444;26.006;2022-07-05T06:02:24;100345.19;;;27.84;40.40
46291;BME280;32023;44.444;26.006;2022-07-05T06:04:51;100338.91;;;27.94;40.57
46291;BME280;32023;44.444;26.006;2022-07-05T06:07:19;100342.16;;;27.96;39.73
46291;BME280;32023;44.444;26.006;2022-07-05T06:09:46;100338.06;;;28.12;39.44
46291;BME280;32023;44.444;26.006;2022-07-05T06:12:15;100335.50;;;28.30;39.24
46291;BME280;32023;44.444;26.006;2022-07-05T06:15:03;100342.72;;;28.50;39.13
46291;BME280;32023;44.444;26.006;2022-07-05T06:17:37;100339.53;;;28.55;38.98
46291;BME280;32023;44.444;26.006;2022-07-05T06:20:31;100340.09;;;28.64;39.33
46291;BME280;32023;44.444;26.006;2022-07-05T06:23:08;100340.78;;;28.81;39.00
46291;BME280;32023;44.444;26.006;2022-07-05T06:25:43;100347.06;;;28.97;39.51
46291;BME280;32023;44.444;26.006;2022-07-05T06:28:12;100353.09;;;28.92;39.41
46291;BME280;32023;44.444;26.006;2022-07-05T06:30:43;100343.00;;;28.94;39.29
46291;BME280;32023;44.444;26.006;2022-07-05T06:33:09;100344.69;;;28.99;39.27
46291;BME280;32023;44.444;26.006;2022-07-05T06:35:38;100343.66;;;29.14;39.15
46291;BME280;32023;44.444;26.006;2022-07-05T06:38:23;100342.84;;;29.13;37.83
46291;BME280;32023;44.444;26.006;2022-07-05T06:41:10;100335.72;;;28.97;37.57
46291;BME280;32023;44.444;26.006;2022-07-05T06:43:37;100340.97;;;28.95;37.11
46291;BME280;32023;44.444;26.006;2022-07-05T06:46:03;100336.53;;;28.97;36.97
46291;BME280;32023;44.444;26.006;2022-07-05T06:48:30;100340.28;;;29.05;37.32
46291;BME280;32023;44.444;26.006;2022-07-05T06:51:01;100351.72;;;29.12;37.37
46291;BME280;32023;44.444;26.006;2022-07-05T06:53:28;100344.53;;;29.18;37.07
46291;BME280;32023;44.444;26.006;2022-07-05T06:56:03;100341.78;;;29.25;36.84
46291;BME280;32023;44.444;26.006;2022-07-05T06:58:30;100334.69;;;29.38;36.13
46291;BME280;32023;44.444;26.006;2022-07-05T07:00:56;100347.41;;;29.51;35.97
46291;BME280;32023;44.444;26.006;2022-07-05T07:03:23;100347.63;;;29.73;35.63
46291;BME280;32023;44.444;26.006;2022-07-05T07:05:50;100348.66;;;29.87;34.69
46291;BME280;32023;44.444;26.006;2022-07-05T07:08:24;100343.06;;;29.98;34.40
46291;BME280;32023;44.444;26.006;2022-07-05T07:11:16;100341.97;;;30.09;33.89
46291;BME280;32023;44.444;26.006;2022-07-05T07:13:50;100344.88;;;30.20;33.95
46291;BME280;32023;44.444;26.006;2022-07-05T07:16:16;100330.84;;;30.41;33.44
46291;BME280;32023;44.444;26.006;2022-07-05T07:18:46;100340.41;;;30.67;33.76
46291;BME280;32023;44.444;26.006;2022-07-05T07:21:17;100336.47;;;30.89;33.56
46291;BME280;32023;44.444;26.006;2022-07-05T07:23:47;100343.06;;;31.00;32.66
46291;BME280;32023;44.444;26.006;2022-07-05T07:26:25;100334.56;;;31.07;31.70
46291;BME280;32023;44.444;26.006;2022-07-05T07:29:17;100332.94;;;31.06;31.81
46291;BME280;32023;44.444;26.006;2022-07-05T07:31:56;100328.47;;;31.12;31.56
46291;BME280;32023;44.444;26.006;2022-07-05T07:34:34;100335.88;;;31.27;31.41
46291;BME280;32023;44.444;26.006;2022-07-05T07:37:05;100322.88;;;31.23;31.58
46291;BME280;32023;44.444;26.006;2022-07-05T07:39:44;100342.44;;;31.38;31.31
46291;BME280;32023;44.444;26.006;2022-07-05T07:42:11;100342.53;;;31.56;31.28
46291;BME280;32023;44.444;26.006;2022-07-05T07:44:37;100330.34;;;31.70;30.73
46291;BME280;32023;44.444;26.006;2022-07-05T07:47:04;100332.81;;;31.75;30.14
46291;BME280;32023;44.444;26.006;2022-07-05T07:49:30;100330.78;;;31.86;29.93
46291;BME280;32023;44.444;26.006;2022-07-05T07:52:00;100336.53;;;32.11;30.11
46291;BME280;32023;44.444;26.006;2022-07-05T07:54:26;100336.94;;;32.44;30.04
46291;BME280;32023;44.444;26.006;2022-07-05T07:56:54;100342.63;;;32.80;29.30
46291;BME280;32023;44.444;26.006;2022-07-05T07:59:25;100340.94;;;33.00;29.06
46291;BME280;32023;44.444;26.006;2022-07-05T08:01:53;100333.97;;;33.22;28.20
46291;BME280;32023;44.444;26.006;2022-07-05T08:04:22;100330.16;;;33.47;28.04
46291;BME280;32023;44.444;26.006;2022-07-05T08:06:57;100332.91;;;33.75;27.99
46291;BME280;32023;44.444;26.006;2022-07-05T08:09:26;100324.69;;;33.84;27.58
46291;BME280;32023;44.444;26.006;2022-07-05T08:11:55;100326.59;;;34.01;27.25
46291;BME280;32023;44.444;26.006;2022-07-05T08:14:22;100325.19;;;34.27;27.04
46291;BME280;32023;44.444;26.006;2022-07-05T08:16:52;100320.41;;;34.58;26.93
46291;BME280;32023;44.444;26.006;2022-07-05T08:19:20;100331.69;;;34.75;26.87
46291;BME280;32023;44.444;26.006;2022-07-05T08:22:06;100325.16;;;34.75;26.82
46291;BME280;32023;44.444;26.006;2022-07-05T08:24:37;100331.63;;;34.83;26.90
46291;BME280;32023;44.444;26.006;2022-07-05T08:27:06;100324.00;;;35.06;26.59
46291;BME280;32023;44.444;26.006;2022-07-05T08:29:32;100320.50;;;35.25;26.68
46291;BME280;32023;44.444;26.006;2022-07-05T08:31:59;100323.84;;;35.20;26.37
46291;BME280;32023;44.444;26.006;2022-07-05T08:34:33;100314.00;;;35.21;26.07
46291;BME280;32023;44.444;26.006;2022-07-05T08:37:02;100331.19;;;35.21;26.21
46291;BME280;32023;44.444;26.006;2022-07-05T08:39:29;100325.41;;;34.91;25.37
46291;BME280;32023;44.444;26.006;2022-07-05T08:41:56;100323.59;;;34.70;25.38
46291;BME280;32023;44.444;26.006;2022-07-05T08:44:23;100317.13;;;34.59;25.92
46291;BME280;32023;44.444;26.006;2022-07-05T08:46:53;100323.22;;;34.65;25.65
46291;BME280;32023;44.444;26.006;2022-07-05T08:49:30;100317.09;;;34.63;24.69
46291;BME280;32023;44.444;26.006;2022-07-05T08:51:59;100322.06;;;34.55;25.64
46291;BME280;32023;44.444;26.006;2022-07-05T08:54:30;100313.72;;;34.75;25.58
46291;BME280;32023;44.444;26.006;2022-07-05T08:56:57;100303.53;;;35.08;24.98
46291;BME280;32023;44.444;26.006;2022-07-05T08:59:24;100306.59;;;35.28;24.81
46291;BME280;32023;44.444;26.006;2022-07-05T09:01:50;100312.31;;;35.28;24.92
46291;BME280;32023;44.444;26.006;2022-07-05T09:04:18;100304.28;;;35.15;25.08
46291;BME280;32023;44.444;26.006;2022-07-05T09:06:49;100302.28;;;35.43;24.83
46291;BME280;32023;44.444;26.006;2022-07-05T09:09:22;100300.22;;;35.73;24.37
46291;BME280;32023;44.444;26.006;2022-07-05T09:11:54;100300.72;;;35.95;24.42
46291;BME280;32023;44.444;26.006;2022-07-05T09:14:24;100308.91;;;35.93;24.60
46291;BME280;32023;44.444;26.006;2022-07-05T09:16:51;100293.16;;;35.51;25.17
46291;BME280;32023;44.444;26.006;2022-07-05T09:19:18;100304.59;;;35.51;25.10
46291;BME280;32023;44.444;26.006;2022-07-05T09:21:47;100295.75;;;35.72;24.66
46291;BME280;32023;44.444;26.006;2022-07-05T09:24:16;100289.72;;;36.17;24.63
46291;BME280;32023;44.444;26.006;2022-07-05T09:26:44;100298.78;;;36.62;24.50
46291;BME280;32023;44.444;26.006;2022-07-05T09:29:18;100290.78;;;36.93;23.95
46291;BME280;32023;44.444;26.006;2022-07-05T09:31:49;100284.25;;;37.12;23.76
46291;BME280;32023;44.444;26.006;2022-07-05T09:34:23;100281.19;;;36.80;22.83
46291;BME280;32023;44.444;26.006;2022-07-05T09:37:02;100296.34;;;36.14;22.43
46291;BME280;32023;44.444;26.006;2022-07-05T09:42:14;100272.59;;;36.13;23.61
46291;BME280;32023;44.444;26.006;2022-07-05T09:44:45;100280.91;;;36.51;22.91
46291;BME280;32023;44.444;26.006;2022-07-05T09:47:14;100272.47;;;37.06;22.55
46291;BME280;32023;44.444;26.006;2022-07-05T09:49:51;100280.25;;;37.26;22.40
46291;BME280;32023;44.444;26.006;2022-07-05T09:52:34;100267.31;;;37.18;22.33
46291;BME280;32023;44.444;26.006;2022-07-05T09:57:37;100258.41;;;37.12;21.96
46291;BME280;32023;44.444;26.006;2022-07-05T10:00:10;100266.22;;;37.11;22.72
46291;BME280;32023;44.444;26.006;2022-07-05T10:02:40;100270.25;;;37.34;22.03
46291;BME280;32023;44.444;26.006;2022-07-05T10:05:13;100253.88;;;37.50;21.75
46291;BME280;32023;44.444;26.006;2022-07-05T10:07:47;100247.00;;;37.96;21.39
46291;BME280;32023;44.444;26.006;2022-07-05T10:10:18;100245.56;;;38.82;20.52
46291;BME280;32023;44.444;26.006;2022-07-05T10:12:50;100246.19;;;39.56;20.20
46291;BME280;32023;44.444;26.006;2022-07-05T10:15:18;100246.44;;;40.00;19.45
46291;BME280;32023;44.444;26.006;2022-07-05T10:22:56;100231.19;;;40.80;18.41
46291;BME280;32023;44.444;26.006;2022-07-05T10:25:24;100238.16;;;41.36;17.41
46291;BME280;32023;44.444;26.006;2022-07-05T10:27:55;100230.66;;;42.54;17.10
46291;BME280;32023;44.444;26.006;2022-07-05T10:30:23;100222.41;;;43.77;15.54
46291;BME280;32023;44.444;26.006;2022-07-05T10:32:51;100234.03;;;45.25;14.72
46291;BME280;32023;44.444;26.006;2022-07-05T10:35:18;100232.09;;;45.80;14.01
46291;BME280;32023;44.444;26.006;2022-07-05T10:37:45;100242.00;;;46.43;13.14
46291;BME280;32023;44.444;26.006;2022-07-05T10:40:17;100233.06;;;46.47;13.26
46291;BME280;32023;44.444;26.006;2022-07-05T10:42:56;100227.75;;;46.92;12.85
46291;BME280;32023;44.444;26.006;2022-07-05T10:45:28;100218.16;;;47.11;12.73
46291;BME280;32023;44.444;26.006;2022-07-05T10:48:18;100229.69;;;46.95;12.65
46291;BME280;32023;44.444;26.006;2022-07-05T10:50:53;100213.03;;;47.26;12.79
46291;BME280;32023;44.444;26.006;2022-07-05T10:58:44;100207.66;;;49.22;11.12
46291;BME280;32023;44.444;26.006;2022-07-05T11:06:43;100197.84;;;43.87;15.04
46291;BME280;32023;44.444;26.006;2022-07-05T11:09:14;100213.47;;;43.56;15.56
46291;BME280;32023;44.444;26.006;2022-07-05T11:11:43;100189.50;;;42.78;16.07
46291;BME280;32023;44.444;26.006;2022-07-05T11:17:16;100186.25;;;43.03;16.20
46291;BME280;32023;44.444;26.006;2022-07-05T11:20:14;100185.78;;;42.77;16.21
46291;BME280;32023;44.444;26.006;2022-07-05T11:23:02;100187.91;;;41.73;16.69
46291;BME280;32023;44.444;26.006;2022-07-05T11:25:34;100186.44;;;41.77;17.08
46291;BME280;32023;44.444;26.006;2022-07-05T11:28:16;100183.94;;;41.40;17.45
46291;BME280;32023;44.444;26.006;2022-07-05T11:33:32;100185.13;;;40.42;18.33
46291;BME280;32023;44.444;26.006;2022-07-05T11:36:01;100182.66;;;40.32;19.18
46291;BME280;32023;44.444;26.006;2022-07-05T11:39:14;100181.59;;;39.66;18.83
46291;BME280;32023;44.444;26.006;2022-07-05T11:41:44;100173.44;;;39.52;19.18
46291;BME280;32023;44.444;26.006;2022-07-05T11:44:15;100166.06;;;39.38;19.32
46291;BME280;32023;44.444;26.006;2022-07-05T11:46:45;100166.13;;;39.22;20.09
46291;BME280;32023;44.444;26.006;2022-07-05T11:49:12;100175.69;;;38.65;20.20
46291;BME280;32023;44.444;26.006;2022-07-05T11:51:59;100163.97;;;38.15;20.64
46291;BME280;32023;44.444;26.006;2022-07-05T11:54:31;100154.28;;;38.37;20.63
46291;BME280;32023;44.444;26.006;2022-07-05T11:56:59;100146.53;;;38.34;20.69
46291;BME280;32023;44.444;26.006;2022-07-05T11:59:26;100148.72;;;38.59;20.31
46291;BME280;32023;44.444;26.006;2022-07-05T12:01:53;100148.72;;;38.59;20.57
46291;BME280;32023;44.444;26.006;2022-07-05T12:04:31;100142.16;;;38.59;20.59
46291;BME280;32023;44.444;26.006;2022-07-05T12:06:58;100135.44;;;38.49;20.19
46291;BME280;32023;44.444;26.006;2022-07-05T12:09:32;100133.16;;;38.28;20.56
46291;BME280;32023;44.444;26.006;2022-07-05T12:12:24;100131.09;;;37.83;21.44
46291;BME280;32023;44.444;26.006;2022-07-05T12:15:19;100121.38;;;37.29;21.83
46291;BME280;32023;44.444;26.006;2022-07-05T12:17:50;100126.84;;;37.23;22.43
46291;BME280;32023;44.444;26.006;2022-07-05T12:20:24;100126.03;;;37.23;22.02
46291;BME280;32023;44.444;26.006;2022-07-05T12:22:51;100123.41;;;37.28;21.81
46291;BME280;32023;44.444;26.006;2022-07-05T12:25:23;100115.63;;;37.45;21.68
46291;BME280;32023;44.444;26.006;2022-07-05T12:27:52;100111.78;;;37.51;21.89
46291;BME280;32023;44.444;26.006;2022-07-05T12:30:18;100111.88;;;37.64;21.93
46291;BME280;32023;44.444;26.006;2022-07-05T12:33:02;100110.97;;;37.83;21.47
46291;BME280;32023;44.444;26.006;2022-07-05T12:35:41;100112.94;;;38.02;21.39
46291;BME280;32023;44.444;26.006;2022-07-05T12:38:16;100099.19;;;38.23;20.84
46291;BME280;32023;44.444;26.006;2022-07-05T12:40:46;100117.50;;;38.00;20.91
46291;BME280;32023;44.444;26.006;2022-07-05T12:43:19;100104.78;;;37.52;21.54
46291;BME280;32023;44.444;26.006;2022-07-05T12:46:07;100097.50;;;37.16;21.83
46291;BME280;32023;44.444;26.006;2022-07-05T12:48:39;100105.22;;;36.99;22.52
46291;BME280;32023;44.444;26.006;2022-07-05T12:51:08;100097.78;;;36.85;22.49
46291;BME280;32023;44.444;26.006;2022-07-05T12:53:48;100094.25;;;36.78;23.29
46291;BME280;32023;44.444;26.006;2022-07-05T12:56:34;100083.25;;;36.92;22.56
46291;BME280;32023;44.444;26.006;2022-07-05T12:59:19;100084.19;;;37.22;22.71
46291;BME280;32023;44.444;26.006;2022-07-05T13:01:45;100088.69;;;37.23;22.29
46291;BME280;32023;44.444;26.006;2022-07-05T13:04:15;100092.09;;;37.18;22.47
46291;BME280;32023;44.444;26.006;2022-07-05T13:06:55;100086.28;;;37.01;22.16
46291;BME280;32023;44.444;26.006;2022-07-05T13:09:39;100085.56;;;36.81;22.32
46291;BME280;32023;44.444;26.006;2022-07-05T13:12:13;100086.47;;;36.58;22.66
46291;BME280;32023;44.444;26.006;2022-07-05T13:14:42;100079.84;;;36.42;22.90
46291;BME280;32023;44.444;26.006;2022-07-05T13:17:15;100084.50;;;36.36;23.61
46291;BME280;32023;44.444;26.006;2022-07-05T13:19:48;100084.63;;;36.29;23.29
46291;BME280;32023;44.444;26.006;2022-07-05T13:22:20;100084.88;;;35.95;23.33
46291;BME280;32023;44.444;26.006;2022-07-05T13:24:49;100082.03;;;35.48;24.20
46291;BME280;32023;44.444;26.006;2022-07-05T13:27:18;100081.34;;;35.41;24.39
46291;BME280;32023;44.444;26.006;2022-07-05T13:29:44;100077.25;;;35.42;24.41
46291;BME280;32023;44.444;26.006;2022-07-05T13:32:11;100070.22;;;35.46;24.20
46291;BME280;32023;44.444;26.006;2022-07-05T13:35:00;100064.59;;;35.62;24.15